Time;durP1;ratioP1;P1;durP2;ratioP2;P2;SDS_P1;SDS_P2;PMS_P1;PMS_P2;Temp;Humidity;BMP_temperature;BMP_pressure;BME280_temperature;BME280_humidity;BME280_pressure;Samples;Min_cycle;Max_cycle;Signal;HPM_P1;HPM_P2
2022/07/13 00:01:52;;;;;;;;;;;;;;;18.39;69.31;101783.22;5003485;28;21465;-80
2022/07/13 00:04:17;;;;;;;;;;;;;;;18.38;69.39;101781.53;5005319;28;19933;-81
2022/07/13 00:06:42;;;;;;;;;;;;;;;18.40;67.44;101784.09;5005280;28;19972;-81
2022/07/13 00:09:08;;;;;;;;;;;;;;;18.43;66.74;101770.81;4997557;28;19926;-81
2022/07/13 00:11:33;;;;;;;;;;;;;;;18.41;67.25;101781.41;5007327;28;19929;-81
2022/07/13 00:13:58;;;;;;;;;;;;;;;18.40;68.61;101782.31;5004723;28;19921;-81
2022/07/13 00:16:23;;;;;;;;;;;;;;;18.40;68.39;101779.69;5003741;28;19925;-81
2022/07/13 00:18:49;;;;;;;;;;;;;;;18.39;68.34;101770.06;5000968;28;19921;-80
2022/07/13 00:21:14;;;;;;;;;;;;;;;18.41;67.26;101768.25;5006153;28;19924;-81
2022/07/13 00:23:39;;;;;;;;;;;;;;;18.44;66.39;101773.41;5004715;28;19932;-81
2022/07/13 00:26:05;;;;;;;;;;;;;;;18.44;65.77;101765.50;5006538;28;19921;-81
2022/07/13 00:28:30;;;;;;;;;;;;;;;18.44;66.06;101759.38;5008975;28;19932;-80
2022/07/13 00:30:55;;;;;;;;;;;;;;;18.44;65.93;101760.25;5004511;28;19956;-81
2022/07/13 00:33:21;;;;;;;;;;;;;;;18.43;65.65;101742.72;5007898;28;19913;-81
2022/07/13 00:35:46;;;;;;;;;;;;;;;18.44;65.47;101748.88;5001622;28;19925;-81
2022/07/13 00:38:11;;;;;;;;;;;;;;;18.41;66.29;101746.34;5002245;28;19932;-81
2022/07/13 00:40:37;;;;;;;;;;;;;;;18.41;65.88;101756.88;5010536;28;19925;-80
2022/07/13 00:43:02;;;;;;;;;;;;;;;18.42;65.42;101751.53;5006613;28;20028;-80
2022/07/13 00:45:27;;;;;;;;;;;;;;;18.42;65.16;101750.72;5007249;28;19975;-81
2022/07/13 00:47:53;;;;;;;;;;;;;;;18.42;65.07;101742.81;5003239;28;20500;-81
2022/07/13 00:50:19;;;;;;;;;;;;;;;18.41;65.03;101744.56;5005833;28;20291;-81
2022/07/13 00:52:46;;;;;;;;;;;;;;;18.40;64.70;101731.47;5003305;28;19926;-81
2022/07/13 00:55:12;;;;;;;;;;;;;;;18.38;65.40;101734.16;5004487;28;19931;-81
2022/07/13 00:57:38;;;;;;;;;;;;;;;18.38;65.90;101725.41;4999287;28;20012;-81
2022/07/13 01:00:05;;;;;;;;;;;;;;;18.37;65.64;101723.69;5002143;28;20335;-81
2022/07/13 01:02:30;;;;;;;;;;;;;;;18.36;65.47;101722.81;5007636;28;19920;-81
2022/07/13 01:04:56;;;;;;;;;;;;;;;18.35;65.81;101725.53;5003906;28;20381;-81
2022/07/13 01:07:21;;;;;;;;;;;;;;;18.36;65.33;101719.38;5005915;28;19921;-81
2022/07/13 01:09:47;;;;;;;;;;;;;;;18.36;64.30;101717.56;5005333;28;20450;-80
2022/07/13 01:12:12;;;;;;;;;;;;;;;18.36;64.35;101717.56;5008035;28;20337;-81
2022/07/13 01:14:38;;;;;;;;;;;;;;;18.36;64.80;101714.94;5005289;28;19972;-81
2022/07/13 01:17:03;;;;;;;;;;;;;;;18.34;65.61;101710.66;5010210;28;19925;-81
2022/07/13 01:19:29;;;;;;;;;;;;;;;18.35;65.48;101715.88;5007249;28;19923;-80
2022/07/13 01:21:59;;;;;;;;;;;;;;;18.36;65.04;101716.72;5006674;28;19926;-81
2022/07/13 01:24:25;;;;;;;;;;;;;;;18.36;65.78;101722.00;5006609;28;19921;-81
2022/07/13 01:26:51;;;;;;;;;;;;;;;18.33;66.32;101722.13;5010803;28;19928;-81
2022/07/13 01:29:16;;;;;;;;;;;;;;;18.30;67.55;101712.56;5011986;28;19949;-81
2022/07/13 01:31:41;;;;;;;;;;;;;;;18.28;67.87;101698.59;5012580;28;19925;-81
2022/07/13 01:34:07;;;;;;;;;;;;;;;18.26;68.53;101702.22;5007946;28;19989;-80
2022/07/13 01:36:37;;;;;;;;;;;;;;;18.23;69.36;101699.69;5005254;28;19952;-81
2022/07/13 01:39:02;;;;;;;;;;;;;;;18.18;69.48;101695.44;5008271;28;20016;-81
2022/07/13 01:41:31;;;;;;;;;;;;;;;18.16;68.77;101701.69;5016551;28;20059;-80
2022/07/13 01:43:57;;;;;;;;;;;;;;;18.12;70.29;101711.47;5009910;28;19917;-80
2022/07/13 01:46:23;;;;;;;;;;;;;;;18.09;71.14;101716.00;5010642;28;19922;-81
2022/07/13 01:48:48;;;;;;;;;;;;;;;18.07;71.80;101712.53;5008874;28;19992;-80
2022/07/13 01:51:14;;;;;;;;;;;;;;;18.05;72.15;101715.25;5009332;28;19921;-81
2022/07/13 01:53:39;;;;;;;;;;;;;;;18.02;72.60;101704.84;5009528;28;19925;-81
2022/07/13 01:56:04;;;;;;;;;;;;;;;18.03;72.72;101682.03;5009871;28;20012;-80
2022/07/13 01:58:30;;;;;;;;;;;;;;;18.02;71.28;101689.06;5008498;28;19975;-81
2022/07/13 02:00:56;;;;;;;;;;;;;;;18.02;71.27;101675.94;5006308;28;19933;-80
2022/07/13 02:03:21;;;;;;;;;;;;;;;18.05;71.29;101682.84;5008777;28;19928;-81
2022/07/13 02:05:46;;;;;;;;;;;;;;;18.01;71.50;101681.22;5003130;28;20234;-80
2022/07/13 02:08:12;;;;;;;;;;;;;;;18.02;72.16;101680.31;5008264;28;19922;-81
2022/07/13 02:10:37;;;;;;;;;;;;;;;18.02;72.06;101675.06;5008049;28;20182;-81
2022/07/13 02:13:07;;;;;;;;;;;;;;;18.03;71.71;101664.50;5017130;28;20304;-80
2022/07/13 02:15:32;;;;;;;;;;;;;;;18.03;72.17;101661.00;5010551;28;19931;-81
2022/07/13 02:17:57;;;;;;;;;;;;;;;18.04;71.27;101663.56;5006567;28;19930;-81
2022/07/13 02:20:25;;;;;;;;;;;;;;;18.06;70.63;101664.38;5003748;28;20296;-81
2022/07/13 02:22:51;;;;;;;;;;;;;;;18.08;70.28;101669.56;5005607;28;19925;-80
2022/07/13 02:25:16;;;;;;;;;;;;;;;18.06;70.35;101661.75;5011926;28;19925;-80
2022/07/13 02:27:42;;;;;;;;;;;;;;;18.04;70.08;101663.56;5001864;28;19976;-80
2022/07/13 02:30:08;;;;;;;;;;;;;;;18.06;70.06;101658.25;5006811;28;19956;-81
2022/07/13 02:32:33;;;;;;;;;;;;;;;18.06;70.12;101655.63;5006774;28;19988;-81
2022/07/13 02:34:58;;;;;;;;;;;;;;;18.07;69.17;101655.56;5010097;28;19929;-81
2022/07/13 02:37:24;;;;;;;;;;;;;;;18.12;67.80;101658.03;5006450;28;19932;-80
2022/07/13 02:39:51;;;;;;;;;;;;;;;18.12;67.56;101656.25;5006552;28;20284;-80
2022/07/13 02:42:16;;;;;;;;;;;;;;;18.11;68.35;101656.31;5017944;28;20021;-79
2022/07/13 02:44:42;;;;;;;;;;;;;;;18.11;67.53;101656.31;4998728;28;20012;-79
2022/07/13 02:47:07;;;;;;;;;;;;;;;18.15;65.87;101644.78;5005842;28;20012;-78
2022/07/13 02:49:32;;;;;;;;;;;;;;;18.16;66.48;101651.72;5005337;28;20380;-78
2022/07/13 02:51:57;;;;;;;;;;;;;;;18.12;67.00;101640.47;5010267;28;19935;-79
2022/07/13 02:54:23;;;;;;;;;;;;;;;18.11;65.86;101644.03;5007661;28;19926;-79
2022/07/13 02:56:48;;;;;;;;;;;;;;;18.10;67.11;101651.97;5008693;28;19925;-79
2022/07/13 02:59:14;;;;;;;;;;;;;;;18.10;67.78;101649.31;5005831;28;19925;-79
2022/07/13 03:01:39;;;;;;;;;;;;;;;18.10;66.63;101651.97;5012668;28;20328;-79
2022/07/13 03:04:04;;;;;;;;;;;;;;;18.08;68.21;101645.91;5006911;28;19976;-79
2022/07/13 03:06:30;;;;;;;;;;;;;;;18.05;67.74;101648.66;5007704;28;19964;-79
2022/07/13 03:08:55;;;;;;;;;;;;;;;18.02;69.15;101638.25;5008287;28;19936;-79
2022/07/13 03:11:20;;;;;;;;;;;;;;;18.04;68.27;101639.91;4990803;28;19950;-79
2022/07/13 03:13:46;;;;;;;;;;;;;;;18.03;67.66;101640.84;4986303;28;20020;-79
2022/07/13 03:16:11;;;;;;;;;;;;;;;18.01;68.32;101637.38;4982090;28;19925;-79
2022/07/13 03:18:36;;;;;;;;;;;;;;;17.99;68.93;101638.38;4989428;28;19929;-79
2022/07/13 03:21:02;;;;;;;;;;;;;;;18.00;68.19;101634.84;4988912;28;20354;-78
2022/07/13 03:23:27;;;;;;;;;;;;;;;18.01;68.61;101641.78;4985342;28;20023;-78
2022/07/13 03:25:53;;;;;;;;;;;;;;;17.99;68.36;101635.75;4978024;28;19932;-78
2022/07/13 03:28:18;;;;;;;;;;;;;;;18.04;67.00;101642.53;4990702;28;19928;-78
2022/07/13 03:30:43;;;;;;;;;;;;;;;18.05;66.02;101640.75;4988860;28;19953;-79
2022/07/13 03:33:08;;;;;;;;;;;;;;;18.02;67.75;101643.50;4991381;28;19922;-79
2022/07/13 03:35:34;;;;;;;;;;;;;;;18.04;67.38;101645.16;4989042;28;19987;-79
2022/07/13 03:37:59;;;;;;;;;;;;;;;18.00;68.14;101632.22;4986988;28;19968;-79
2022/07/13 03:40:25;;;;;;;;;;;;;;;18.04;67.59;101633.78;4992893;28;20376;-79
2022/07/13 03:42:50;;;;;;;;;;;;;;;18.06;66.47;101642.50;5009454;28;19948;-79
2022/07/13 03:45:16;;;;;;;;;;;;;;;18.08;65.76;101625.75;5008221;28;19975;-79
2022/07/13 03:47:41;;;;;;;;;;;;;;;18.08;66.41;101632.75;5004796;28;19925;-79
2022/07/13 03:50:07;;;;;;;;;;;;;;;18.07;65.76;101620.53;5003878;28;20041;-79
2022/07/13 03:52:32;;;;;;;;;;;;;;;18.09;65.37;101627.44;5006013;28;19932;-79
2022/07/13 03:54:58;;;;;;;;;;;;;;;18.11;65.78;101630.00;5001970;28;19958;-79
2022/07/13 03:57:23;;;;;;;;;;;;;;;18.11;64.64;101619.50;5008605;28;20390;-79
2022/07/13 03:59:48;;;;;;;;;;;;;;;18.12;64.83;101629.94;4997677;28;19932;-79
2022/07/13 04:02:14;;;;;;;;;;;;;;;18.12;64.62;101627.31;5008724;28;19925;-79
2022/07/13 04:04:39;;;;;;;;;;;;;;;18.11;65.30;101628.25;5005379;28;19925;-79
2022/07/13 04:07:04;;;;;;;;;;;;;;;18.13;65.84;101626.41;5005197;28;19928;-79
2022/07/13 04:09:29;;;;;;;;;;;;;;;18.11;65.72;101623.00;4998082;28;19926;-79
2022/07/13 04:11:55;;;;;;;;;;;;;;;18.13;64.93;101621.16;5007760;28;19968;-78
2022/07/13 04:14:20;;;;;;;;;;;;;;;18.13;65.19;101621.16;5006171;28;20004;-78
2022/07/13 04:16:45;;;;;;;;;;;;;;;18.13;65.22;101615.03;5005181;28;20293;-79
2022/07/13 04:19:11;;;;;;;;;;;;;;;18.18;64.23;101617.50;5003506;28;19985;-79
2022/07/13 04:21:36;;;;;;;;;;;;;;;18.18;64.28;101611.28;5004630;28;19921;-79
2022/07/13 04:24:01;;;;;;;;;;;;;;;18.20;65.19;101608.63;5003368;28;20344;-79
2022/07/13 04:26:27;;;;;;;;;;;;;;;18.20;64.63;101613.88;5001991;28;20646;-79
2022/07/13 04:28:52;;;;;;;;;;;;;;;18.22;64.12;101616.44;5005159;28;19975;-79
2022/07/13 04:31:17;;;;;;;;;;;;;;;18.25;63.73;101611.06;5004902;28;19933;-79
2022/07/13 04:33:43;;;;;;;;;;;;;;;18.23;64.14;101620.78;5005565;28;19957;-79
2022/07/13 04:36:08;;;;;;;;;;;;;;;18.22;64.29;101609.41;5004985;28;19932;-79
2022/07/13 04:38:34;;;;;;;;;;;;;;;18.24;63.90;101606.75;4995629;28;19925;-79
2022/07/13 04:40:59;;;;;;;;;;;;;;;18.25;64.46;101611.91;5002732;28;19972;-78
2022/07/13 04:43:25;;;;;;;;;;;;;;;18.28;63.46;101613.56;5004865;28;19969;-78
2022/07/13 04:45:50;;;;;;;;;;;;;;;18.26;63.87;101615.41;5002938;28;20681;-78
2022/07/13 04:48:15;;;;;;;;;;;;;;;18.28;63.02;101619.69;5001898;28;19930;-78
2022/07/13 04:50:41;;;;;;;;;;;;;;;18.29;63.38;101615.28;4990458;28;19941;-78
2022/07/13 04:53:06;;;;;;;;;;;;;;;18.29;63.85;101612.66;4990165;28;19930;-79
2022/07/13 04:55:31;;;;;;;;;;;;;;;18.28;64.41;101618.81;4993547;28;20005;-79
2022/07/13 04:57:57;;;;;;;;;;;;;;;18.31;63.34;101616.06;4991100;28;19973;-79
2022/07/13 05:00:23;;;;;;;;;;;;;;;18.29;62.93;101608.25;4992004;28;19967;-79
2022/07/13 05:02:48;;;;;;;;;;;;;;;18.32;62.84;101608.16;4988044;28;19925;-79
2022/07/13 05:05:14;;;;;;;;;;;;;;;18.32;64.06;101605.50;4992134;28;19929;-79
2022/07/13 05:07:39;;;;;;;;;;;;;;;18.34;62.67;101611.56;4992183;28;19918;-78
2022/07/13 05:10:05;;;;;;;;;;;;;;;18.36;62.78;101608.88;4995127;28;19956;-79
2022/07/13 05:12:30;;;;;;;;;;;;;;;18.33;62.42;101606.38;5011144;28;19933;-78
2022/07/13 05:14:57;;;;;;;;;;;;;;;18.37;61.64;101597.41;5011009;28;19948;-78
2022/07/13 05:17:22;;;;;;;;;;;;;;;18.36;62.47;101601.00;4997296;28;19929;-78
2022/07/13 05:19:48;;;;;;;;;;;;;;;18.37;62.00;101600.06;4989395;28;20079;-78
2022/07/13 05:22:13;;;;;;;;;;;;;;;18.37;61.77;101594.78;4987522;28;19933;-79
2022/07/13 05:24:43;;;;;;;;;;;;;;;18.38;62.17;101607.03;4993018;28;19932;-79
2022/07/13 05:27:09;;;;;;;;;;;;;;;18.37;62.70;101607.94;5010975;28;20439;-79
2022/07/13 05:29:34;;;;;;;;;;;;;;;18.37;62.96;101607.94;5011033;28;20020;-79
2022/07/13 05:31:59;;;;;;;;;;;;;;;18.37;63.43;101607.94;5007540;28;20673;-79
2022/07/13 05:34:25;;;;;;;;;;;;;;;18.37;64.41;101607.94;5012443;28;19957;-79
2022/07/13 05:36:53;;;;;;;;;;;;;;;18.35;63.63;101608.03;5006527;28;20628;-79
2022/07/13 05:39:18;;;;;;;;;;;;;;;18.38;63.37;101609.66;5008997;28;19929;-78
2022/07/13 05:41:43;;;;;;;;;;;;;;;18.38;63.75;101617.56;5009368;28;19925;-78
2022/07/13 05:44:08;;;;;;;;;;;;;;;18.32;64.84;101618.66;5018117;28;19917;-79
2022/07/13 05:46:34;;;;;;;;;;;;;;;18.32;65.40;101617.81;5002138;28;19921;-79
2022/07/13 05:48:59;;;;;;;;;;;;;;;18.33;64.33;101625.66;5009701;28;20397;-78
2022/07/13 05:51:24;;;;;;;;;;;;;;;18.35;64.25;101622.94;5009177;28;19964;-78
2022/07/13 05:53:53;;;;;;;;;;;;;;;18.34;64.44;101632.59;5011852;28;19929;-78
2022/07/13 05:56:18;;;;;;;;;;;;;;;18.36;64.62;101643.09;5004347;28;20360;-77
2022/07/13 05:58:44;;;;;;;;;;;;;;;18.37;65.43;101644.78;5008729;28;19965;-80
2022/07/13 06:01:09;;;;;;;;;;;;;;;18.37;66.03;101642.13;4996926;28;19953;-79
2022/07/13 06:03:34;;;;;;;;;;;;;;;18.36;66.54;101627.28;5017526;28;19964;-79
2022/07/13 06:06:00;;;;;;;;;;;;;;;18.35;67.53;101629.06;5008933;28;20384;-78
2022/07/13 06:08:25;;;;;;;;;;;;;;;18.33;68.05;101620.38;5009361;28;19926;-78
2022/07/13 06:10:52;;;;;;;;;;;;;;;18.36;68.42;101624.66;5008177;28;19957;-81
2022/07/13 06:13:17;;;;;;;;;;;;;;;18.32;69.05;101621.28;5006284;28;19991;-81
2022/07/13 06:15:43;;;;;;;;;;;;;;;18.35;68.77;101622.94;5008832;28;19921;-80
2022/07/13 06:18:08;;;;;;;;;;;;;;;18.39;68.99;101622.75;5007142;28;19914;-81
2022/07/13 06:20:33;;;;;;;;;;;;;;;18.39;68.68;101617.47;5007120;28;20511;-80
2022/07/13 06:23:11;;;;;;;;;;;;;;;18.35;69.36;101609.78;5003839;28;19922;-80
2022/07/13 06:25:37;;;;;;;;;;;;;;;18.36;68.23;101614.97;5002470;28;19988;-79
2022/07/13 06:28:02;;;;;;;;;;;;;;;18.37;67.67;101619.31;5010323;28;19957;-80
2022/07/13 06:30:28;;;;;;;;;;;;;;;18.42;66.85;101608.63;5008944;28;20032;-80
2022/07/13 06:32:53;;;;;;;;;;;;;;;18.40;67.96;101611.31;5002477;28;19952;-80
2022/07/13 06:35:18;;;;;;;;;;;;;;;18.41;66.78;101612.19;5001275;28;19922;-80
2022/07/13 06:37:44;;;;;;;;;;;;;;;18.40;66.92;101607.81;5006236;28;20017;-80
2022/07/13 06:40:09;;;;;;;;;;;;;;;18.40;66.97;101613.09;5008073;28;20197;-80
2022/07/13 06:42:35;;;;;;;;;;;;;;;18.39;67.63;101609.59;5008760;28;19961;-80
2022/07/13 06:45:00;;;;;;;;;;;;;;;18.41;67.31;101602.50;5003728;28;20015;-80
2022/07/13 06:47:25;;;;;;;;;;;;;;;18.41;68.25;101596.38;5004525;28;20031;-80
2022/07/13 06:49:51;;;;;;;;;;;;;;;18.40;69.07;101595.53;5002690;28;19922;-80
2022/07/13 06:52:16;;;;;;;;;;;;;;;18.45;68.82;101598.84;5007529;28;19921;-80
2022/07/13 06:54:41;;;;;;;;;;;;;;;18.46;68.74;101597.94;5005491;28;19933;-80
2022/07/13 06:57:07;;;;;;;;;;;;;;;18.45;67.99;101600.63;5006345;28;20338;-80
2022/07/13 06:59:32;;;;;;;;;;;;;;;18.50;67.16;101591.66;5007852;28;19925;-80
2022/07/13 07:01:57;;;;;;;;;;;;;;;18.54;66.19;101587.97;5004987;28;19979;-80
2022/07/13 07:04:23;;;;;;;;;;;;;;;18.53;67.57;101598.56;5007626;28;20636;-80
2022/07/13 07:06:48;;;;;;;;;;;;;;;18.54;66.70;101595.84;5013366;28;19929;-80
2022/07/13 07:09:13;;;;;;;;;;;;;;;18.61;65.48;101588.56;5007138;28;20025;-80
2022/07/13 07:11:38;;;;;;;;;;;;;;;18.59;65.94;101598.31;5007376;28;20400;-80
2022/07/13 07:14:04;;;;;;;;;;;;;;;18.55;66.87;101601.97;5002957;28;19921;-79
2022/07/13 07:16:29;;;;;;;;;;;;;;;18.49;66.36;101595.19;5006183;28;19975;-79
2022/07/13 07:18:54;;;;;;;;;;;;;;;18.56;65.59;101601.94;5008204;28;20553;-80
2022/07/13 07:21:20;;;;;;;;;;;;;;;18.55;67.57;101601.97;5012218;28;19925;-79
2022/07/13 07:23:47;;;;;;;;;;;;;;;18.54;68.58;101606.38;5008201;28;19922;-79
2022/07/13 07:26:12;;;;;;;;;;;;;;;18.54;66.46;101602.91;5008589;28;19925;-80
2022/07/13 07:28:37;;;;;;;;;;;;;;;18.52;67.90;101600.34;5010790;28;19932;-79
2022/07/13 07:31:03;;;;;;;;;;;;;;;18.53;67.22;101595.94;5007796;28;20060;-79
2022/07/13 07:33:28;;;;;;;;;;;;;;;18.58;68.00;101592.19;5003913;28;20542;-79
2022/07/13 07:35:53;;;;;;;;;;;;;;;18.64;66.66;101593.72;5007023;28;19925;-79
2022/07/13 07:38:19;;;;;;;;;;;;;;;18.68;67.00;101595.31;4987893;28;19932;-79
2022/07/13 07:40:44;;;;;;;;;;;;;;;18.79;65.32;101586.94;4987136;28;19930;-79
2022/07/13 07:43:09;;;;;;;;;;;;;;;18.66;66.57;101594.50;4980173;28;19926;-79
2022/07/13 07:45:35;;;;;;;;;;;;;;;18.76;65.97;101593.19;4980205;28;20114;-79
2022/07/13 07:48:00;;;;;;;;;;;;;;;18.82;65.57;101594.72;4985856;28;20373;-80
2022/07/13 07:50:25;;;;;;;;;;;;;;;18.79;66.21;101594.84;4980786;28;19930;-81
2022/07/13 07:52:51;;;;;;;;;;;;;;;18.69;67.66;101595.22;5007682;28;20002;-81
2022/07/13 07:55:17;;;;;;;;;;;;;;;18.75;65.43;101586.22;4989991;28;20012;-81
2022/07/13 07:57:50;;;;;;;;;;;;;;;18.66;66.81;101587.44;4998890;28;20020;-81
2022/07/13 08:00:15;;;;;;;;;;;;;;;18.62;66.29;101580.63;5007423;28;19917;-81
2022/07/13 08:02:41;;;;;;;;;;;;;;;18.67;68.35;101585.69;5007168;28;19924;-80
2022/07/13 08:05:07;;;;;;;;;;;;;;;18.60;65.55;101573.72;5007486;28;19917;-81
2022/07/13 08:07:32;;;;;;;;;;;;;;;18.64;68.36;101572.66;5006001;28;19933;-80
2022/07/13 08:09:57;;;;;;;;;;;;;;;18.62;65.56;101571.88;5005753;28;20035;-81
2022/07/13 08:12:23;;;;;;;;;;;;;;;18.62;68.75;101574.50;5005285;28;19925;-81
2022/07/13 08:14:48;;;;;;;;;;;;;;;18.61;65.84;101576.28;5007868;28;19928;-81
2022/07/13 08:17:13;;;;;;;;;;;;;;;18.65;68.30;101580.50;5007493;28;20385;-81
2022/07/13 08:19:39;;;;;;;;;;;;;;;18.64;68.89;101581.41;5001941;28;19928;-81
2022/07/13 08:22:04;;;;;;;;;;;;;;;18.62;66.24;101588.53;5005287;28;20019;-78
2022/07/13 08:24:29;;;;;;;;;;;;;;;18.61;65.75;101581.53;4999488;28;19960;-79
2022/07/13 08:26:55;;;;;;;;;;;;;;;18.62;69.99;101587.66;5004793;28;19925;-79
2022/07/13 08:29:20;;;;;;;;;;;;;;;18.61;68.88;101591.19;5007140;28;19918;-79
2022/07/13 08:31:45;;;;;;;;;;;;;;;18.63;68.86;101590.22;5007155;28;19928;-79
2022/07/13 08:39:38;;;;;;;;;;;;;;;18.61;65.03;101576.28;5004050;28;19972;-79
2022/07/13 08:42:04;;;;;;;;;;;;;;;18.63;67.00;101578.81;5006087;28;19939;-79
2022/07/13 08:44:31;;;;;;;;;;;;;;;18.62;67.56;101575.38;5005850;28;20443;-79
2022/07/13 08:46:57;;;;;;;;;;;;;;;18.62;69.15;101575.38;5004643;28;19945;-79
2022/07/13 08:49:23;;;;;;;;;;;;;;;18.57;65.46;101574.69;5004908;28;20300;-79
2022/07/13 08:51:50;;;;;;;;;;;;;;;18.63;65.34;101576.19;5004852;28;19921;-79
2022/07/13 08:54:15;;;;;;;;;;;;;;;18.68;67.48;101577.75;5000685;28;19987;-79
2022/07/13 08:56:41;;;;;;;;;;;;;;;18.68;65.12;101576.88;4999754;28;19917;-79
2022/07/13 08:59:07;;;;;;;;;;;;;;;18.66;65.03;101576.06;4999361;28;19913;-79
2022/07/13 09:01:32;;;;;;;;;;;;;;;18.69;65.84;101568.03;5005561;28;20647;-79
2022/07/13 09:07:01;;;;;;;;;;;;;;;18.70;64.91;101556.59;4999791;28;19976;-79
2022/07/13 09:09:28;;;;;;;;;;;;;;;18.67;65.15;101562.00;5003497;28;20404;-79
2022/07/13 09:12:08;;;;;;;;;;;;;;;18.61;65.08;101552.59;5001099;28;20384;-79
2022/07/13 09:14:33;;;;;;;;;;;;;;;18.67;67.70;101562.88;5003226;28;19922;-79
2022/07/13 09:16:58;;;;;;;;;;;;;;;18.77;65.34;101555.44;5001671;28;19932;-79
2022/07/13 09:19:25;;;;;;;;;;;;;;;18.70;64.56;101561.88;5004420;28;19926;-79
2022/07/13 09:21:51;;;;;;;;;;;;;;;18.69;64.48;101553.13;5006931;28;19924;-79
2022/07/13 09:24:16;;;;;;;;;;;;;;;18.78;67.72;101556.31;5004267;28;19933;-79
2022/07/13 09:26:43;;;;;;;;;;;;;;;18.78;64.28;101545.78;5005406;28;19925;-79
2022/07/13 09:29:08;;;;;;;;;;;;;;;18.75;64.60;101546.72;5007764;28;19972;-79
2022/07/13 09:31:50;;;;;;;;;;;;;;;18.80;64.48;101550.03;5005196;28;19963;-79
2022/07/13 09:34:16;;;;;;;;;;;;;;;18.82;64.00;101550.81;5004943;28;20662;-79
2022/07/13 09:36:41;;;;;;;;;;;;;;;18.81;64.31;101550.91;5004127;28;20011;-79
2022/07/13 09:39:10;;;;;;;;;;;;;;;18.96;63.93;101555.47;5007126;28;19928;-79
2022/07/13 09:41:36;;;;;;;;;;;;;;;19.21;59.69;101543.81;4999958;28;19925;-79
2022/07/13 09:46:55;;;;;;;;;;;;;;;20.15;53.55;101539.47;5007239;28;19972;-79
2022/07/13 09:49:34;;;;;;;;;;;;;;;20.43;49.28;101546.91;5007966;28;20008;-79
2022/07/13 09:52:02;;;;;;;;;;;;;;;20.61;48.04;101539.84;5007851;28;20392;-77
2022/07/13 09:54:28;;;;;;;;;;;;;;;20.02;51.81;101548.88;5007332;28;19925;-79
2022/07/13 09:56:56;;;;;;;;;;;;;;;21.09;46.41;101540.00;5009964;28;19972;-79
2022/07/13 09:59:21;;;;;;;;;;;;;;;20.55;50.18;101548.06;5008305;28;19921;-79
2022/07/13 10:01:47;;;;;;;;;;;;;;;20.44;51.37;101543.31;5007291;28;20385;-79
2022/07/13 10:04:12;;;;;;;;;;;;;;;20.06;53.92;101544.28;5007547;28;19932;-79
2022/07/13 10:06:38;;;;;;;;;;;;;;;20.24;51.17;101541.66;5003414;28;19935;-79
2022/07/13 10:09:03;;;;;;;;;;;;;;;20.41;51.83;101550.53;5008773;28;19929;-79
2022/07/13 10:11:29;;;;;;;;;;;;;;;21.09;47.44;101541.78;5008298;28;19913;-79
2022/07/13 10:13:55;;;;;;;;;;;;;;;20.26;52.69;101545.06;5008233;28;19940;-79
2022/07/13 10:16:20;;;;;;;;;;;;;;;20.74;49.70;101548.81;5009937;28;19956;-79
2022/07/13 10:18:47;;;;;;;;;;;;;;;20.75;50.11;101546.13;5006137;28;19953;-79
2022/07/13 10:21:18;;;;;;;;;;;;;;;19.98;54.01;101538.53;5005418;28;19957;-79
2022/07/13 10:23:43;;;;;;;;;;;;;;;20.99;48.25;101541.41;4997937;28;19928;-79
2022/07/13 10:26:22;;;;;;;;;;;;;;;21.53;44.94;101536.75;5004705;28;20385;-81
2022/07/13 10:29:21;;;;;;;;;;;;;;;22.12;42.55;101533.47;5008314;28;19921;-81
2022/07/13 10:31:57;;;;;;;;;;;;;;;21.92;42.87;101532.81;4983171;28;19936;-81
2022/07/13 10:34:43;;;;;;;;;;;;;;;21.81;43.71;101534.31;5005691;28;19925;-81
2022/07/13 10:37:10;;;;;;;;;;;;;;;21.14;46.68;101530.03;5005625;28;19945;-81
2022/07/13 10:39:35;;;;;;;;;;;;;;;22.09;41.94;101529.19;5007959;28;19925;-81
2022/07/13 10:42:17;;;;;;;;;;;;;;;22.01;43.45;101533.22;5003771;28;19975;-81
2022/07/13 10:44:43;;;;;;;;;;;;;;;22.36;40.73;101527.66;4998285;28;20397;-81
2022/07/13 10:47:12;;;;;;;;;;;;;;;22.57;41.57;101530.84;5003290;28;19926;-82
2022/07/13 10:49:46;;;;;;;;;;;;;;;22.31;41.57;101528.88;5007859;28;20120;-81
2022/07/13 10:52:21;;;;;;;;;;;;;;;21.87;43.91;101529.56;5007559;28;19918;-81
2022/07/13 10:55:11;;;;;;;;;;;;;;;21.54;46.10;101533.19;5005649;28;19921;-81
2022/07/13 10:57:42;;;;;;;;;;;;;;;22.15;42.73;101526.22;5008188;28;19929;-82
2022/07/13 11:02:43;;;;;;;;;;;;;;;22.29;43.02;101526.25;5005180;28;19933;-81
2022/07/13 11:05:09;;;;;;;;;;;;;;;22.16;43.84;101520.00;5004517;28;19929;-82
2022/07/13 11:07:44;;;;;;;;;;;;;;;22.19;42.92;101517.16;5005048;28;19949;-82
2022/07/13 11:10:18;;;;;;;;;;;;;;;22.49;41.83;101531.28;5007472;28;19925;-82
2022/07/13 11:12:55;;;;;;;;;;;;;;;22.31;42.86;101519.09;5007450;28;19925;-82
2022/07/13 11:15:21;;;;;;;;;;;;;;;22.28;43.08;101516.59;5006891;28;19921;-81
2022/07/13 11:17:53;;;;;;;;;;;;;;;22.36;42.79;101517.06;5008383;28;19921;-81
2022/07/13 11:20:19;;;;;;;;;;;;;;;22.69;41.13;101508.94;5006384;28;21190;-82
2022/07/13 11:25:50;;;;;;;;;;;;;;;22.38;43.60;101501.94;5003932;28;19979;-81
2022/07/13 11:28:28;;;;;;;;;;;;;;;22.58;42.65;101511.34;4989856;28;19925;-82
2022/07/13 11:30:54;;;;;;;;;;;;;;;22.50;43.10;101495.06;4994184;28;20024;-82
2022/07/13 11:33:20;;;;;;;;;;;;;;;23.15;41.41;101504.34;4993489;28;20300;-82
2022/07/13 11:35:49;;;;;;;;;;;;;;;22.86;41.64;101495.53;5003410;28;19930;-81
2022/07/13 11:38:16;;;;;;;;;;;;;;;22.99;42.52;101487.69;5001303;28;19914;-81
2022/07/13 11:40:41;;;;;;;;;;;;;;;22.78;42.98;101494.28;5004669;28;19936;-82
2022/07/13 11:43:08;;;;;;;;;;;;;;;23.28;40.98;101489.41;5003650;28;19925;-82
2022/07/13 11:45:33;;;;;;;;;;;;;;;21.72;47.39;101496.03;5004510;28;19922;-81
2022/07/13 11:47:59;;;;;;;;;;;;;;;22.30;45.25;101493.59;5004862;28;19937;-81
2022/07/13 11:50:44;;;;;;;;;;;;;;;22.10;45.66;101488.59;5001764;28;19926;-82
2022/07/13 11:53:19;;;;;;;;;;;;;;;22.50;44.58;101480.03;5004178;28;19956;-82
2022/07/13 11:55:44;;;;;;;;;;;;;;;22.62;43.41;101473.16;4996650;28;19958;-82
2022/07/13 11:58:22;;;;;;;;;;;;;;;23.20;42.03;101467.84;4998432;28;19969;-82
2022/07/13 12:00:48;;;;;;;;;;;;;;;23.31;40.88;101470.66;4999738;28;19937;-82
2022/07/13 12:03:13;;;;;;;;;;;;;;;23.14;40.81;101467.38;5003062;28;20644;-82
2022/07/13 12:05:42;;;;;;;;;;;;;;;22.60;43.56;101468.91;5002443;28;20790;-82
2022/07/13 12:08:07;;;;;;;;;;;;;;;23.28;41.27;101468.19;5005111;28;19918;-82
2022/07/13 12:10:36;;;;;;;;;;;;;;;23.30;41.91;101463.63;4997403;28;19936;-82
2022/07/13 12:13:01;;;;;;;;;;;;;;;23.43;41.42;101469.03;5001194;28;19973;-82
2022/07/13 12:15:27;;;;;;;;;;;;;;;23.28;41.13;101470.00;5005549;28;19926;-81
2022/07/13 12:17:53;;;;;;;;;;;;;;;23.53;41.41;101457.72;5005665;28;19925;-82
2022/07/13 12:20:20;;;;;;;;;;;;;;;23.38;40.58;101457.88;5007827;28;20420;-81
2022/07/13 12:22:56;;;;;;;;;;;;;;;23.46;41.77;101455.56;5003644;28;19926;-81
2022/07/13 12:25:32;;;;;;;;;;;;;;;23.27;42.57;101449.72;5005161;28;19956;-80
2022/07/13 12:28:01;;;;;;;;;;;;;;;22.90;45.58;101448.50;5007863;28;19928;-80
2022/07/13 12:30:26;;;;;;;;;;;;;;;22.50;45.45;101445.63;4999655;28;20381;-78
2022/07/13 12:33:05;;;;;;;;;;;;;;;23.11;42.88;101441.06;5009350;28;19924;-78
2022/07/13 12:35:30;;;;;;;;;;;;;;;23.63;40.91;101448.22;5007619;28;20007;-77
2022/07/13 12:37:57;;;;;;;;;;;;;;;23.44;41.99;101447.69;5004008;28;20456;-77
2022/07/13 12:40:36;;;;;;;;;;;;;;;23.55;40.92;101433.78;5002063;28;19929;-77
2022/07/13 12:43:01;;;;;;;;;;;;;;;23.49;41.28;101437.66;5005411;28;19976;-77
2022/07/13 12:45:33;;;;;;;;;;;;;;;23.13;42.77;101436.50;5005431;28;19949;-77
2022/07/13 12:47:58;;;;;;;;;;;;;;;22.51;46.74;101439.38;5003656;28;19925;-77
2022/07/13 12:50:30;;;;;;;;;;;;;;;23.41;41.42;101442.59;5003734;28;19929;-77